• Join FlightAware (Why Join?)
  • Login
  • US Flag 
03:33PM EDT


 

Airport Tracker/Info


-or-


 

Live Flight TrackerFlight Track Log ✈ N816RF ✈ 28-May-2012 ✈ KOAK - KBDN

Flight Track Log - Related Links

Times and Time Zones

All times are in EDT time to prevent confusion due to time zone crossing. See the N816RF flight status page for this flight to view local times or setup timezone preferences in your user account.

Time Position Orientation Groundspeed Altitude Reporting Facility
EDT Latitude Longitude Course Direction KTS MPH feet Rate Location/Type
08:06PM 37.7333 -122.2333 338° Northwest 102 117 700  Level Northern Cal TRACON
08:08PM 37.7667 -122.2500 322° Northwest 111 128 2,200 1,320 Climbing Northern Cal TRACON
08:09PM 37.7833 -122.2667 322° Northwest 118 136 3,500 1,020 Climbing Northern Cal TRACON
08:10PM 37.8167 -122.3000 360° North 130 150 4,300 600 Climbing Northern Cal TRACON
08:11PM 37.8828 -122.2997 359° North 136 157 5,300 540 Climbing Oakland Center
08:12PM 37.9222 -122.3006 North 141 162 5,800 480 Climbing Oakland Center
08:13PM 37.9661 -122.2986 North 141 162 6,300 480 Climbing Oakland Center
08:14PM 38.0058 -122.2967 North 146 168 6,800 480 Climbing Oakland Center
08:15PM 38.0475 -122.2947 359° North 146 168 7,300 420 Climbing Oakland Center
08:16PM 38.0872 -122.2956 North 146 168 7,700 420 Climbing Oakland Center
08:17PM 38.1289 -122.2936 North 146 168 8,200 420 Climbing Oakland Center
08:18PM 38.1686 -122.2917 North 140 161 8,600 360 Climbing Oakland Center
08:19PM 38.2103 -122.2897 North 140 161 9,000 420 Climbing Oakland Center
08:20PM 38.2500 -122.2878 359° North 140 161 9,500 420 Climbing Oakland Center
08:21PM 38.2917 -122.2886 North 140 161 9,900 180 Climbing Oakland Center
08:22PM 38.3356 -122.2867 359° North 145 167 9,900  Level Oakland Center
08:23PM 38.3833 -122.2875 North 151 174 9,900  Level Oakland Center
08:24PM 38.4314 -122.2858 North 162 186 9,900  Level Oakland Center
08:25PM 38.4794 -122.2839 North 162 186 9,900  Level Oakland Center
08:26PM 38.5272 -122.2822 359° North 167 192 9,900  Level Oakland Center
08:27PM 38.5753 -122.2831 North 167 192 9,900  Level Oakland Center
08:28PM 38.6233 -122.2814 North 167 192 9,900  Level Oakland Center
08:29PM 38.6714 -122.2794 356° North 167 192 9,900  Level Oakland Center
08:30PM 38.7172 -122.2831 North 167 192 9,900  Level Oakland Center
08:31PM 38.7692 -122.2814 North 172 198 9,900  Level Oakland Center
08:32PM 38.8172 -122.2794 North 172 198 9,900  Level Oakland Center
08:33PM 38.8653 -122.2778 North 172 198 9,900  Level Oakland Center
08:34PM 38.9175 -122.2758 North 178 205 9,900  Level Oakland Center
08:35PM 38.9653 -122.2742 North 178 205 10,000  Climbing Oakland Center
08:36PM 39.0133 -122.2722 North 178 205 9,900  Descending Oakland Center
08:37PM 39.0614 -122.2706 359° North 178 205 10,000  Climbing Oakland Center
08:38PM 39.1094 -122.2714 North 178 205 10,000  Level Oakland Center
08:39PM 39.1594 -122.2697 359° North 178 205 10,000  Level Oakland Center
08:40PM 39.2094 -122.2706 North 178 205 10,000  Level Oakland Center
08:41PM 39.2594 -122.2661 North 178 205 10,000  Level Oakland Center
08:42PM 39.3075 -122.2642 359° North 178 205 10,000  Level Oakland Center
08:43PM 39.3575 -122.2653 North 178 205 10,000  Level Oakland Center
08:44PM 39.4056 -122.2633 359° North 178 205 10,000  Level Oakland Center
08:45PM 39.4514 -122.2642 11° North 173 199 10,000  Level Oakland Center
08:46PM 39.4994 -122.2517 359° North 173 199 10,000 -60 Level Oakland Center
08:47PM 39.5475 -122.2525 359° North 173 199 9,900 -60 Descending Oakland Center
08:48PM 39.5975 -122.2533 North 178 205 9,900  Level Oakland Center
08:49PM 39.6456 -122.2489 359° North 178 205 10,000  Climbing Oakland Center
08:50PM 39.6956 -122.2497 North 178 205 10,000  Level Oakland Center
08:51PM 39.7456 -122.2453 359° North 178 205 10,000  Level Oakland Center
08:52PM 39.7936 -122.2461 North 178 205 10,000  Level Oakland Center
08:53PM 39.8414 -122.2442 North 178 205 10,000  Level Oakland Center
08:54PM 39.8914 -122.2425 North 178 205 10,000 -60 Level Oakland Center
08:55PM 39.9394 -122.2406 359° North 178 205 9,900 -60 Descending Oakland Center
08:56PM 39.9875 -122.2414 North 178 205 9,900  Level Oakland Center
08:57PM 40.0353 -122.2397 North 178 205 10,000  Climbing Oakland Center
08:58PM 40.0856 -122.2350 11° North 178 205 10,000 -60 Level Oakland Center
08:59PM 40.1356 -122.2225 14° North 178 205 9,900  Descending Oakland Center
09:00PM 40.1836 -122.2069 14° North 178 205 10,000  Climbing Oakland Center
09:01PM 40.2297 -122.1914 15° North 178 205 10,000  Level Oakland Center
09:02PM 40.2800 -122.1733 15° North 178 205 10,000  Level Oakland Center
09:03PM 40.3258 -122.1578 14° North 184 212 10,000  Level Oakland Center
09:04PM 40.3742 -122.1422 16° North 179 206 10,000  Level Oakland Center
09:05PM 40.4242 -122.1239 14° North 179 206 10,000 -60 Level Oakland Center
09:06PM 40.4703 -122.1083 17° North 179 206 9,900  Descending Oakland Center
09:07PM 40.5161 -122.0900 14° North 179 206 10,000  Climbing Oakland Center
09:08PM 40.5644 -122.0744 14° North 179 206 10,000  Level Oakland Center
09:09PM 40.6125 -122.0589 15° North 179 206 10,000  Level Oakland Center
09:10PM 40.6583 -122.0431 15° North 174 200 10,000  Level Oakland Center
09:11PM 40.7086 -122.0247 16° North 174 200 10,000  Level Oakland Center
09:12PM 40.7567 -122.0064 14° North 174 200 10,000 -60 Level Oakland Center
09:13PM 40.8047 -121.9906 16° North 174 200 9,900 -60 Descending Oakland Center
09:14PM 40.8514 -121.9731 15° North 179 206 9,900 60 Level Seattle Center
09:15PM 40.8997 -121.9556 15° North 179 206 10,100 60 Climbing Seattle Center
09:16PM 40.9475 -121.9383 15° North 179 206 10,100 -60 Level Seattle Center
09:17PM 40.9958 -121.9217 16° North 179 206 10,000 -60 Descending Seattle Center
09:18PM 41.0436 -121.9033 15° North 179 206 10,000  Level Seattle Center
09:19PM 41.0922 -121.8861 15° North 180 207 10,000  Level Seattle Center
09:20PM 41.1503 -121.8650 14° North 180 207 10,000  Level Seattle Center
09:21PM 41.1956 -121.8494 15° North 181 208 10,000  Level Seattle Center
09:22PM 41.2433 -121.8322 15° North 179 206 10,000  Level Seattle Center
09:23PM 41.2922 -121.8147 15° North 181 208 10,100  Climbing Seattle Center
09:24PM 41.3381 -121.7981 16° North 175 201 10,100 -60 Level Seattle Center
09:25PM 41.3836 -121.7806 15° North 173 199 10,000  Descending Seattle Center
09:26PM 41.4303 -121.7639 16° North 173 199 10,100  Climbing Seattle Center
09:27PM 41.4756 -121.7467 10° North 172 198 10,000 -60 Descending Seattle Center
09:28PM 41.5208 -121.7358 North 168 193 10,000  Level Seattle Center
09:29PM 41.5750 -121.7250 North 165 190 10,100  Climbing Seattle Center
09:30PM 41.6219 -121.7167 North 167 192 10,000 -60 Descending Seattle Center
09:31PM 41.6678 -121.7072 North 168 193 10,000  Level Seattle Center
09:33PM 41.7139 -121.6981 North 168 193 10,100  Climbing Seattle Center
09:34PM 41.7606 -121.6892 North 169 194 10,000 -60 Descending Seattle Center
09:35PM 41.8075 -121.6797 North 170 196 10,000  Level Seattle Center
09:36PM 41.8539 -121.6711 North 169 194 10,000  Level Seattle Center
09:37PM 41.9000 -121.6611 North 169 194 10,100  Climbing Seattle Center
09:38PM 41.9486 -121.6519 North 172 198 10,000 -60 Descending Seattle Center
09:39PM 41.9958 -121.6428 North 174 200 10,000  Level Seattle Center
09:40PM 42.0514 -121.6319 North 171 197 10,100  Climbing Seattle Center
09:41PM 42.0989 -121.6225 North 172 198 10,000  Descending Seattle Center
09:42PM 42.1464 -121.6128 North 173 199 10,100  Climbing Seattle Center
09:43PM 42.1931 -121.6025 North 172 198 10,100 180 Level Seattle Center
09:44PM 42.2419 -121.5928 North 169 194 10,500 480 Climbing Seattle Center
09:45PM 42.2797 -121.5844 North 162 186 11,100 480 Climbing Seattle Center
09:46PM 42.3197 -121.5761 North 153 176 11,500 420 Climbing Seattle Center
09:47PM 42.3600 -121.5675 North 149 171 12,000 240 Climbing Seattle Center
09:48PM 42.4036 -121.5583 North 152 175 12,000  Level Seattle Center
09:49PM 42.4592 -121.5481 North 161 185 12,000  Level Seattle Center
09:50PM 42.5064 -121.5389 10° North 167 192 12,000  Level Seattle Center
09:51PM 42.5500 -121.5289 North 165 190 12,000  Level Seattle Center
09:52PM 42.5919 -121.5200 North 159 183 12,000  Level Seattle Center
09:53PM 42.6336 -121.5122 North 155 178 12,000  Level Seattle Center
09:54PM 42.6781 -121.5036 10° North 157 181 12,000  Level Seattle Center
09:55PM 42.7233 -121.4925 10° North 161 185 12,100  Climbing Seattle Center
09:56PM 42.7697 -121.4814 North 166 191 12,000 -60 Descending Seattle Center
09:57PM 42.8158 -121.4733 North 167 192 12,000  Level Seattle Center
09:58PM 42.8611 -121.4650 10° North 166 191 12,000  Level Seattle Center
09:59PM 42.9069 -121.4539 North 166 191 12,000  Level Seattle Center
10:00PM 42.9519 -121.4444 North 165 190 12,100  Climbing Seattle Center
10:01PM 43.0153 -121.4325 North 165 190 12,000 -60 Descending Seattle Center
10:02PM 43.0614 -121.4225 North 165 190 12,000  Level Seattle Center
10:03PM 43.1044 -121.4142 North 162 186 12,100  Climbing Seattle Center
10:04PM 43.1500 -121.4042 North 163 188 12,000 -60 Descending Seattle Center
10:05PM 43.1969 -121.3944 North 166 191 12,000  Level Seattle Center
10:06PM 43.2433 -121.3847 North 168 193 12,000  Level Seattle Center
10:07PM 43.2894 -121.3742 North 168 193 12,100  Climbing Seattle Center
10:08PM 43.3353 -121.3642 11° North 168 193 12,000 -60 Descending Seattle Center
10:09PM 43.3833 -121.3517 10° North 172 198 12,000  Level Seattle Center
10:10PM 43.4306 -121.3406 North 174 200 12,000  Level Seattle Center
10:11PM 43.4797 -121.3322 11° North 176 203 12,000 -60 Level Seattle Center
10:12PM 43.5375 -121.3172 North 176 203 11,900 -300 Descending Seattle Center
10:13PM 43.5839 -121.3092 North 176 203 11,400 -720 Descending Seattle Center
10:14PM 43.6356 -121.3000 North 183 211 10,500 -660 Descending Seattle Center
10:15PM 43.6875 -121.2883 North 187 215 10,100 -240 Descending Seattle Center
10:16PM 43.7317 -121.2797 10° North 169 194 10,100  Level Seattle Center
10:18PM 43.7761 -121.2686 North 162 186 10,100  Level Seattle Center
10:19PM 43.8197 -121.2594 North 160 184 10,100 -180 Level Seattle Center
10:20PM 43.8631 -121.2508 North 159 183 9,800 -480 Descending Seattle Center
10:21PM 43.9178 -121.2392 North 163 188 9,200 -420 Descending Seattle Center
10:22PM 43.9575 -121.2333 North 151 174 9,000 -240 Descending Seattle Center